This is the latest recevied weather packets stored in our database for station/object Kirchdorf. If no packets are shown the sender has not sent any weather packets the latest 10 day(s).
| Time | Temp. | Humidity | Pressure | Rain* | Wind** | Luminosity | Snow |
|---|---|---|---|---|---|---|---|
| 1787562130 | 20° C | 62% | 1020.1 hPa | 0 mm | - | - | - |
| 1787560331 | 18.89° C | 66% | 1020.2 hPa | 0 mm | - | - | - |
| 1787558530 | 17.78° C | 69% | 1020.2 hPa | 0 mm | - | - | - |
| 1787556730 | 15.56° C | 74% | 1020.2 hPa | 0 mm | - | - | - |
| 1787554929 | 13.89° C | 82% | 1020.3 hPa | 0 mm | - | - | - |
| 1787553130 | 13.33° C | 84% | 1020.5 hPa | 0 mm | - | - | - |
| 1787551330 | 11.67° C | 87% | 1020.7 hPa | 0 mm | - | - | - |
| 1787549529 | 10.56° C | 91% | 1020.5 hPa | 0 mm | - | - | - |
| 1787547729 | 10° C | 91% | 1020.7 hPa | 0 mm | - | - | - |
| 1787545929 | 10° C | 91% | 1020.8 hPa | 0 mm | - | - | - |
| 1787544130 | 10° C | 92% | 1020.9 hPa | 0 mm | - | - | - |
| 1787542329 | 10.56° C | 91% | 1020.9 hPa | 0 mm | - | - | - |
| 1787540530 | 11.11° C | 91% | 1021.2 hPa | 0 mm | - | - | - |
| 1787538729 | 10.56° C | 90% | 1021.2 hPa | 0 mm | - | - | - |
| 1787536930 | 11.11° C | 87% | 1021.2 hPa | 0 mm | - | - | - |
| 1787535130 | 12.22° C | 86% | 1021.2 hPa | 0 mm | - | - | - |
| 1787533329 | 11.67° C | 87% | 1021.3 hPa | 0 mm | - | - | - |
| 1787531531 | 12.22° C | 85% | 1021.2 hPa | 0 mm | - | - | - |
| 1787529731 | 12.78° C | 84% | 1021.6 hPa | 0 mm | - | - | - |
| 1787527931 | 13.33° C | 83% | 1021.7 hPa | 0 mm | - | - | - |
| 1787526131 | 13.89° C | 82% | 1022 hPa | 0 mm | - | - | - |
| 1787524331 | 13.89° C | 79% | 1022 hPa | 0 mm | - | - | - |
| 1787522532 | 14.44° C | 76% | 1021.9 hPa | 0 mm | - | - | - |
| 1787520731 | 13.89° C | 78% | 1021.7 hPa | 0 mm | - | - | - |
| 1787518931 | 14.44° C | 77% | 1021.9 hPa | 0 mm | - | - | - |
* Rain since midnight (hover to see other rain measurements)
** Current wind speed in m/s (hover to see current wind gust speed)